Time;durP1;ratioP1;P1;durP2;ratioP2;P2;SDS_P1;SDS_P2;PMS_P1;PMS_P2;Temp;Humidity;BMP_temperature;BMP_pressure;BME280_temperature;BME280_humidity;BME280_pressure;Samples;Min_cycle;Max_cycle;Signal;HPM_P1;HPM_P2
2021/12/30 00:01:18;;;;;;;36.30;7.68;;;9.10;99.90;;;;;;5054017;28;20502;-72
2021/12/30 00:03:45;;;;;;;51.60;7.63;;;9.10;99.90;;;;;;5054086;28;20493;-73
2021/12/30 00:06:11;;;;;;;51.72;8.60;;;9.10;99.90;;;;;;5057504;28;20072;-72
2021/12/30 00:08:37;;;;;;;51.75;8.40;;;9.10;99.90;;;;;;5057551;28;20044;-72
2021/12/30 00:11:04;;;;;;;44.40;8.43;;;9.10;99.90;;;;;;5057523;28;20098;-72
2021/12/30 00:13:30;;;;;;;53.08;8.90;;;9.00;99.90;;;;;;5057672;28;20173;-73
2021/12/30 00:15:56;;;;;;;55.88;9.07;;;9.00;99.90;;;;;;5057416;28;20111;-73
2021/12/30 00:18:22;;;;;;;55.88;8.73;;;9.00;99.90;;;;;;5057868;28;20043;-73
2021/12/30 00:20:48;;;;;;;47.47;7.97;;;9.00;99.90;;;;;;5057386;28;20166;-72
2021/12/30 00:23:13;;;;;;;51.78;8.90;;;9.00;99.90;;;;;;5005206;28;1039735;-73
2021/12/30 00:25:41;;;;;;;52.00;8.77;;;9.00;99.90;;;;;;5058576;28;20048;-73
2021/12/30 00:28:22;;;;;;;48.03;7.90;;;8.90;99.90;;;;;;5058619;28;20071;-72
2021/12/30 00:30:49;;;;;;;49.28;8.45;;;8.90;99.90;;;;;;5058816;28;20036;-73
2021/12/30 00:33:16;;;;;;;55.33;8.73;;;8.90;99.90;;;;;;5058837;28;20488;-73
2021/12/30 00:35:42;;;;;;;46.83;8.30;;;8.80;99.90;;;;;;5042146;28;20140;-72
2021/12/30 00:38:08;;;;;;;48.30;7.80;;;8.90;99.90;;;;;;5058720;28;20500;-72
2021/12/30 00:40:36;;;;;;;46.63;7.32;;;8.80;99.90;;;;;;5058382;28;20115;-72
2021/12/30 00:43:02;;;;;;;46.45;8.45;;;8.80;99.90;;;;;;5058525;28;20037;-72
2021/12/30 00:45:29;;;;;;;46.78;8.45;;;8.80;99.90;;;;;;5041704;28;20068;-72
2021/12/30 00:47:55;;;;;;;42.45;7.95;;;8.80;99.90;;;;;;5058184;28;20051;-72
2021/12/30 00:50:21;;;;;;;55.28;9.32;;;8.80;99.90;;;;;;5058482;28;20033;-72
2021/12/30 00:52:46;;;;;;;39.53;7.22;;;8.80;99.90;;;;;;5041455;28;20048;-73
2021/12/30 00:55:13;;;;;;;42.50;6.72;;;8.80;99.90;;;;;;5058355;28;20037;-72
2021/12/30 00:57:38;;;;;;;41.63;7.10;;;8.80;99.90;;;;;;5041494;28;20071;-72
2021/12/30 01:00:07;;;;;;;38.35;7.25;;;8.80;99.90;;;;;;5058039;28;20068;-72
2021/12/30 01:02:36;;;;;;;42.50;6.93;;;8.80;99.90;;;;;;5057842;28;20500;-72
2021/12/30 01:05:02;;;;;;;50.10;7.05;;;8.70;99.90;;;;;;5058207;28;20063;-72
2021/12/30 01:07:28;;;;;;;55.50;8.13;;;8.70;99.90;;;;;;5041185;28;20431;-72
2021/12/30 01:09:54;;;;;;;47.42;7.20;;;8.70;99.90;;;;;;5057865;28;20493;-72
2021/12/30 01:12:19;;;;;;;40.78;7.10;;;8.70;99.90;;;;;;5057753;28;20040;-73
2021/12/30 01:14:47;;;;;;;44.70;7.38;;;8.70;99.90;;;;;;5057347;28;20115;-72
2021/12/30 01:17:20;;;;;;;45.83;7.43;;;8.70;99.90;;;;;;5057639;28;20098;-72
2021/12/30 01:19:47;;;;;;;42.00;6.50;;;8.70;99.90;;;;;;5057705;28;20500;-72
2021/12/30 01:22:24;;;;;;;40.00;7.50;;;8.70;99.90;;;;;;5057387;28;20066;-72
2021/12/30 01:24:50;;;;;;;50.08;7.65;;;8.70;99.90;;;;;;5057523;28;20408;-72
2021/12/30 01:27:17;;;;;;;49.25;9.00;;;8.60;99.90;;;;;;5057373;28;20040;-72
2021/12/30 01:29:44;;;;;;;37.42;6.97;;;8.60;99.90;;;;;;5057464;28;20045;-72
2021/12/30 01:32:09;;;;;;;42.33;7.38;;;8.60;99.90;;;;;;5041004;28;20090;-72
2021/12/30 01:34:36;;;;;;;46.28;7.03;;;8.60;99.90;;;;;;5057349;28;20504;-72
2021/12/30 01:37:04;;;;;;;46.22;7.63;;;8.60;99.90;;;;;;5057369;28;20090;-72
2021/12/30 01:39:32;;;;;;;42.20;7.10;;;8.70;99.90;;;;;;5057280;28;20516;-72
2021/12/30 01:41:59;;;;;;;42.75;7.18;;;8.60;99.90;;;;;;5057103;28;20503;-73
2021/12/30 01:44:25;;;;;;;47.15;6.90;;;8.70;99.90;;;;;;5057451;28;20489;-72
2021/12/30 01:46:51;;;;;;;42.95;7.03;;;8.70;99.90;;;;;;5057137;28;20547;-72
2021/12/30 01:49:17;;;;;;;41.17;7.53;;;8.70;99.90;;;;;;5057048;28;20045;-72
2021/12/30 01:51:43;;;;;;;45.10;6.80;;;8.70;99.90;;;;;;5057286;28;20513;-73
2021/12/30 01:54:10;;;;;;;37.40;7.25;;;8.70;99.90;;;;;;5056933;28;20065;-72
2021/12/30 01:56:36;;;;;;;48.85;7.82;;;8.70;99.90;;;;;;5057235;28;20045;-72
2021/12/30 01:59:03;;;;;;;45.08;7.13;;;8.70;99.90;;;;;;5056887;28;20033;-72
2021/12/30 02:01:29;;;;;;;47.25;7.25;;;8.70;99.90;;;;;;5056879;28;20080;-73
2021/12/30 02:03:55;;;;;;;42.45;8.00;;;8.70;99.90;;;;;;5056780;28;20413;-72
2021/12/30 02:06:21;;;;;;;42.15;7.53;;;8.70;99.90;;;;;;5056661;28;20033;-72
2021/12/30 02:08:46;;;;;;;42.97;7.28;;;8.60;99.90;;;;;;5040693;28;20037;-74
2021/12/30 02:11:12;;;;;;;49.25;6.78;;;8.60;99.90;;;;;;5056733;28;20028;-74
2021/12/30 02:13:38;;;;;;;47.15;6.85;;;8.60;99.90;;;;;;5056615;28;20102;-74
2021/12/30 02:16:04;;;;;;;43.38;6.97;;;8.50;99.90;;;;;;5056596;28;20060;-74
2021/12/30 02:18:30;;;;;;;42.92;8.45;;;8.50;99.90;;;;;;5056512;28;20051;-74
2021/12/30 02:21:01;;;;;;;51.90;7.55;;;8.50;99.90;;;;;;5056528;28;20036;-74
2021/12/30 02:23:33;;;;;;;43.85;7.65;;;8.50;99.90;;;;;;5056586;28;20130;-74
2021/12/30 02:26:09;;;;;;;42.22;7.20;;;8.40;99.90;;;;;;5056278;28;20056;-74
2021/12/30 02:28:36;;;;;;;55.50;8.73;;;8.40;99.90;;;;;;5056099;28;20036;-74
2021/12/30 02:31:07;;;;;;;46.45;7.65;;;8.40;99.90;;;;;;5056505;28;20047;-74
2021/12/30 02:33:32;;;;;;;47.60;8.85;;;8.40;99.90;;;;;;5056222;28;20037;-74
2021/12/30 02:35:58;;;;;;;58.33;10.43;;;8.40;99.90;;;;;;5056208;28;20036;-74
2021/12/30 02:38:24;;;;;;;47.67;9.55;;;8.50;99.90;;;;;;5056107;28;20032;-74
2021/12/30 02:40:54;;;;;;;59.08;10.13;;;8.50;99.90;;;;;;5056082;28;20110;-74
2021/12/30 02:43:23;;;;;;;63.10;11.95;;;8.50;99.90;;;;;;5056057;28;20493;-74
2021/12/30 02:45:50;;;;;;;59.35;11.32;;;8.60;99.90;;;;;;5055964;28;20033;-74
2021/12/30 02:48:20;;;;;;;65.20;13.15;;;8.60;99.90;;;;;;5055972;28;20036;-74
2021/12/30 02:50:48;;;;;;;70.57;11.93;;;8.70;99.90;;;;;;5056272;28;20134;-74
2021/12/30 02:53:14;;;;;;;65.22;12.60;;;8.70;99.90;;;;;;5055815;28;20105;-74
2021/12/30 02:55:43;;;;;;;68.70;13.48;;;8.80;99.90;;;;;;5056054;28;20036;-74
2021/12/30 02:58:09;;;;;;;72.75;14.45;;;8.80;99.90;;;;;;5056584;28;20076;-74
2021/12/30 03:00:36;;;;;;;74.13;14.48;;;8.80;99.90;;;;;;5055782;28;20036;-74
2021/12/30 03:03:02;;;;;;;73.72;16.25;;;8.90;99.90;;;;;;5055875;28;20120;-74
2021/12/30 03:05:27;;;;;;;66.90;15.45;;;8.90;99.90;;;;;;5055643;28;20124;-74
2021/12/30 03:07:54;;;;;;;69.43;15.63;;;9.00;99.90;;;;;;5055609;28;20049;-74
2021/12/30 03:10:22;;;;;;;69.45;16.00;;;9.00;99.90;;;;;;5055592;28;20036;-75
2021/12/30 03:12:53;;;;;;;74.30;16.17;;;9.10;99.90;;;;;;5055698;28;20059;-74
2021/12/30 03:15:19;;;;;;;62.15;15.65;;;9.10;99.90;;;;;;5055627;28;20119;-74
2021/12/30 03:17:45;;;;;;;68.32;16.30;;;9.10;99.90;;;;;;5039090;28;20055;-74
2021/12/30 03:20:11;;;;;;;73.07;16.35;;;9.20;99.90;;;;;;5055721;28;20496;-74
2021/12/30 03:22:38;;;;;;;63.53;16.33;;;9.20;99.90;;;;;;5055323;28;20048;-74
2021/12/30 03:25:07;;;;;;;65.00;15.77;;;9.20;99.90;;;;;;5055658;28;20090;-74
2021/12/30 03:27:33;;;;;;;74.18;16.65;;;9.30;99.90;;;;;;5055208;28;20041;-74
2021/12/30 03:29:58;;;;;;;71.40;17.60;;;9.30;99.90;;;;;;5055193;28;20058;-74
2021/12/30 03:32:24;;;;;;;66.82;16.45;;;9.30;99.90;;;;;;5038795;28;20032;-74
2021/12/30 03:34:50;;;;;;;68.75;17.70;;;9.40;99.90;;;;;;5055453;28;20075;-74
2021/12/30 03:37:16;;;;;;;64.78;15.93;;;9.40;99.90;;;;;;5055373;28;20501;-74
2021/12/30 03:39:41;;;;;;;53.30;15.18;;;9.40;99.90;;;;;;5055091;28;20093;-74
2021/12/30 03:42:08;;;;;;;63.17;15.68;;;9.50;99.90;;;;;;5055071;28;20055;-74
2021/12/30 03:44:33;;;;;;;59.63;16.77;;;9.50;99.90;;;;;;5055091;28;20051;-74
2021/12/30 03:46:59;;;;;;;62.20;15.73;;;9.50;99.90;;;;;;5055058;28;20044;-74
2021/12/30 03:49:25;;;;;;;58.78;16.67;;;9.40;99.90;;;;;;5055038;28;20047;-74
2021/12/30 03:51:53;;;;;;;62.30;15.68;;;9.50;99.90;;;;;;5054996;28;20036;-74
2021/12/30 03:54:19;;;;;;;62.97;14.85;;;9.50;99.90;;;;;;5055123;28;20044;-74
2021/12/30 03:56:45;;;;;;;66.43;16.25;;;9.50;99.90;;;;;;5055059;28;20127;-74
2021/12/30 03:59:11;;;;;;;64.05;15.18;;;9.50;99.90;;;;;;5038429;28;20040;-74
2021/12/30 04:01:36;;;;;;;63.17;16.38;;;9.50;99.90;;;;;;5054922;28;20394;-74
2021/12/30 04:04:03;;;;;;;67.03;16.20;;;9.50;99.90;;;;;;5054822;28;20040;-74
2021/12/30 04:06:29;;;;;;;61.22;16.08;;;9.50;99.90;;;;;;5054829;28;20098;-74
2021/12/30 04:08:56;;;;;;;67.22;15.43;;;9.40;99.90;;;;;;5054920;28;20103;-74
2021/12/30 04:11:26;;;;;;;64.78;15.25;;;9.40;99.90;;;;;;5054783;28;20040;-74
2021/12/30 04:13:53;;;;;;;66.40;14.93;;;9.40;99.90;;;;;;5055074;28;20044;-74
2021/12/30 04:16:20;;;;;;;63.25;15.18;;;9.40;99.90;;;;;;5055088;28;20044;-74
2021/12/30 04:18:48;;;;;;;76.03;16.20;;;9.40;99.90;;;;;;5054811;28;20036;-75
2021/12/30 04:21:18;;;;;;;67.57;16.92;;;9.40;99.90;;;;;;5054753;28;20060;-75
2021/12/30 04:23:44;;;;;;;66.57;16.50;;;9.40;99.90;;;;;;5054622;28;20393;-75
2021/12/30 04:26:10;;;;;;;66.07;16.42;;;9.50;99.90;;;;;;5054599;28;20527;-75
2021/12/30 04:28:36;;;;;;;61.10;15.57;;;9.50;99.90;;;;;;5054788;28;20515;-74
2021/12/30 04:31:02;;;;;;;75.00;16.55;;;9.60;99.90;;;;;;5054724;28;20041;-74
2021/12/30 04:33:28;;;;;;;76.78;16.67;;;9.60;99.90;;;;;;5054643;28;20404;-74
2021/12/30 04:35:56;;;;;;;68.97;15.60;;;9.70;99.90;;;;;;5054630;28;20150;-74
2021/12/30 04:38:24;;;;;;;72.03;15.50;;;9.70;99.90;;;;;;5054606;28;20043;-74
2021/12/30 04:40:49;;;;;;;71.93;16.73;;;9.80;99.90;;;;;;5054585;28;20043;-74
2021/12/30 04:43:15;;;;;;;67.68;17.05;;;9.90;99.90;;;;;;5054524;28;20119;-74
2021/12/30 04:45:42;;;;;;;72.20;15.77;;;9.90;99.90;;;;;;5037988;28;20037;-74
2021/12/30 04:48:08;;;;;;;66.30;15.13;;;10.00;99.90;;;;;;5054485;28;20041;-75
2021/12/30 04:50:34;;;;;;;69.28;16.38;;;10.00;99.90;;;;;;5056157;28;20446;-75
2021/12/30 04:53:00;;;;;;;70.13;16.17;;;10.00;99.90;;;;;;5058130;28;20067;-74
2021/12/30 04:55:26;;;;;;;63.85;15.35;;;10.10;99.90;;;;;;5058194;28;20037;-74
2021/12/30 04:57:51;;;;;;;76.88;17.85;;;10.10;99.90;;;;;;5058356;28;20131;-74
2021/12/30 05:00:17;;;;;;;59.83;16.27;;;10.10;99.90;;;;;;5058296;28;20520;-74
2021/12/30 05:03:07;;;;;;;60.53;16.33;;;10.20;99.90;;;;;;5058263;28;20515;-74
2021/12/30 05:05:40;;;;;;;74.80;18.80;;;10.20;99.90;;;;;;5058290;28;20480;-74
2021/12/30 05:08:06;;;;;;;68.30;18.17;;;10.20;99.90;;;;;;5041248;28;20040;-74
2021/12/30 05:10:32;;;;;;;69.45;17.75;;;10.20;99.90;;;;;;5058060;28;20587;-74
2021/12/30 05:12:58;;;;;;;74.00;20.05;;;10.20;99.90;;;;;;5057984;28;20128;-74
2021/12/30 05:15:23;;;;;;;62.53;19.77;;;10.20;99.90;;;;;;5057783;28;20515;-74
2021/12/30 05:17:49;;;;;;;54.67;18.13;;;10.30;99.90;;;;;;5057746;28;20040;-74
2021/12/30 05:20:14;;;;;;;61.10;20.67;;;10.30;99.90;;;;;;5057700;28;20132;-74
2021/12/30 05:22:42;;;;;;;52.55;18.88;;;10.30;99.90;;;;;;5040886;28;20037;-74
2021/12/30 05:25:09;;;;;;;48.90;19.05;;;10.40;99.90;;;;;;5057572;28;20489;-75
2021/12/30 05:27:35;;;;;;;50.55;20.08;;;10.30;99.90;;;;;;5057540;28;20123;-75
2021/12/30 05:30:03;;;;;;;41.88;18.10;;;10.40;99.90;;;;;;5057590;28;20550;-74
2021/12/30 05:32:29;;;;;;;36.38;16.88;;;10.40;99.90;;;;;;5057638;28;20037;-74
2021/12/30 05:34:54;;;;;;;34.28;16.65;;;10.40;99.90;;;;;;5057396;28;20515;-74
2021/12/30 05:37:20;;;;;;;35.38;17.58;;;10.40;99.90;;;;;;5057397;28;20048;-74
2021/12/30 05:39:45;;;;;;;48.28;18.33;;;10.40;99.90;;;;;;5057307;28;20047;-74
2021/12/30 05:42:11;;;;;;;37.22;16.55;;;10.40;99.90;;;;;;5057455;28;20043;-74
2021/12/30 05:44:37;;;;;;;34.40;17.35;;;10.40;99.90;;;;;;5057519;28;20083;-74
2021/12/30 05:47:03;;;;;;;43.42;18.70;;;10.50;99.90;;;;;;5040534;28;20408;-74
2021/12/30 05:49:28;;;;;;;45.97;19.55;;;10.50;99.90;;;;;;5057435;28;20515;-74
2021/12/30 05:51:54;;;;;;;47.38;20.60;;;10.50;99.90;;;;;;5057064;28;20032;-74
2021/12/30 05:54:19;;;;;;;49.92;21.60;;;10.60;99.90;;;;;;5057214;28;20098;-74
2021/12/30 05:56:45;;;;;;;48.15;21.42;;;10.60;99.90;;;;;;5057035;28;20123;-74
2021/12/30 05:59:10;;;;;;;64.40;24.38;;;10.60;99.90;;;;;;5056976;28;20079;-74
2021/12/30 06:01:36;;;;;;;66.45;25.75;;;10.70;99.90;;;;;;5055796;28;20051;-74
2021/12/30 06:04:02;;;;;;;71.15;26.38;;;10.70;99.90;;;;;;5056777;28;20123;-74
2021/12/30 06:06:27;;;;;;;78.88;28.15;;;10.70;99.90;;;;;;5056737;28;20062;-74
2021/12/30 06:08:54;;;;;;;86.70;30.10;;;10.70;99.90;;;;;;5056802;28;20048;-74
2021/12/30 06:11:19;;;;;;;93.35;30.58;;;10.70;99.90;;;;;;5056746;28;20047;-74
2021/12/30 06:13:45;;;;;;;107.88;32.50;;;10.80;99.90;;;;;;5056603;28;20028;-74
2021/12/30 06:16:10;;;;;;;97.95;31.27;;;10.80;99.90;;;;;;5056636;28;20041;-74
2021/12/30 06:18:36;;;;;;;116.63;34.20;;;10.80;99.90;;;;;;5056618;28;20037;-74
2021/12/30 06:21:02;;;;;;;132.00;35.70;;;10.90;99.90;;;;;;5056820;28;20048;-74
2021/12/30 06:23:27;;;;;;;129.52;37.80;;;10.90;99.90;;;;;;5056369;28;20039;-74
2021/12/30 06:25:53;;;;;;;122.88;36.05;;;10.90;99.90;;;;;;5056384;28;20459;-74
2021/12/30 06:28:18;;;;;;;122.80;35.47;;;10.90;99.90;;;;;;5056353;28;20072;-74
2021/12/30 06:30:44;;;;;;;117.13;35.17;;;10.90;99.90;;;;;;5056298;28;20037;-74
2021/12/30 06:33:09;;;;;;;104.28;32.67;;;10.90;99.90;;;;;;5056275;28;20043;-74
2021/12/30 06:35:35;;;;;;;110.07;32.88;;;11.00;99.90;;;;;;5056277;28;20072;-74
2021/12/30 06:38:02;;;;;;;99.03;32.08;;;11.00;99.90;;;;;;5039595;28;20093;-74
2021/12/30 06:40:28;;;;;;;89.80;30.05;;;11.00;99.90;;;;;;5039565;28;20044;-75
2021/12/30 06:42:54;;;;;;;84.03;29.27;;;11.10;99.90;;;;;;5055976;28;20127;-75
2021/12/30 06:45:19;;;;;;;85.13;28.27;;;11.10;99.90;;;;;;5056110;28;20036;-74
2021/12/30 06:47:45;;;;;;;80.35;27.65;;;11.10;99.90;;;;;;5055913;28;20058;-74
2021/12/30 06:50:14;;;;;;;87.70;28.75;;;11.10;99.90;;;;;;5056023;28;20417;-74
2021/12/30 06:52:41;;;;;;;79.15;26.77;;;11.10;99.90;;;;;;5039281;28;20047;-74
2021/12/30 06:55:08;;;;;;;65.85;25.30;;;11.10;99.90;;;;;;5039326;28;20036;-74
2021/12/30 06:57:34;;;;;;;72.68;25.02;;;11.10;99.90;;;;;;5056902;28;20144;-74
2021/12/30 07:00:00;;;;;;;67.20;23.13;;;11.20;99.90;;;;;;5056058;28;20484;-74
2021/12/30 07:02:26;;;;;;;53.38;21.35;;;11.20;99.90;;;;;;5055669;28;20037;-74
2021/12/30 07:04:51;;;;;;;55.58;20.35;;;11.20;99.90;;;;;;5055631;28;20036;-74
2021/12/30 07:07:17;;;;;;;48.97;19.35;;;11.20;99.90;;;;;;5055777;28;20036;-74
2021/12/30 07:09:42;;;;;;;41.58;18.33;;;11.20;99.90;;;;;;5055898;28;20048;-74
2021/12/30 07:12:08;;;;;;;44.50;18.70;;;11.20;99.90;;;;;;5055545;28;20040;-74
2021/12/30 07:14:34;;;;;;;46.80;17.45;;;11.30;99.90;;;;;;5055111;28;20040;-74
2021/12/30 07:16:59;;;;;;;39.28;16.00;;;11.30;99.90;;;;;;5055806;28;20032;-74
2021/12/30 07:19:25;;;;;;;39.70;16.10;;;11.30;99.90;;;;;;5055490;28;20471;-74
2021/12/30 07:21:51;;;;;;;32.08;14.15;;;11.30;99.90;;;;;;5055290;28;20040;-74
2021/12/30 07:24:17;;;;;;;20.17;10.23;;;11.30;99.90;;;;;;5055270;28;20119;-74
2021/12/30 07:26:43;;;;;;;23.38;10.68;;;11.40;99.90;;;;;;5055548;28;20051;-74
2021/12/30 07:29:08;;;;;;;25.88;10.27;;;11.40;99.90;;;;;;5055328;28;20412;-74
2021/12/30 07:31:34;;;;;;;25.98;9.70;;;11.40;99.90;;;;;;5055531;28;20131;-74
2021/12/30 07:34:00;;;;;;;18.75;8.25;;;11.40;99.90;;;;;;5055476;28;20025;-74
2021/12/30 07:36:25;;;;;;;13.40;7.22;;;11.40;99.90;;;;;;5055508;28;20504;-74
2021/12/30 07:38:51;;;;;;;12.38;6.60;;;11.40;99.90;;;;;;5055233;28;20516;-74
2021/12/30 07:41:17;;;;;;;11.30;5.88;;;11.50;99.90;;;;;;5055141;28;20043;-74
2021/12/30 07:43:43;;;;;;;10.05;5.25;;;11.50;99.90;;;;;;5055102;28;20127;-73
2021/12/30 07:46:10;;;;;;;9.88;5.13;;;11.50;99.90;;;;;;5055117;28;20098;-74
2021/12/30 07:48:36;;;;;;;10.32;4.78;;;11.50;99.90;;;;;;5055230;28;20116;-74
2021/12/30 07:51:03;;;;;;;12.48;5.32;;;11.50;99.90;;;;;;5055082;28;20534;-74
2021/12/30 07:53:29;;;;;;;9.55;4.80;;;11.50;99.90;;;;;;5054993;28;20075;-74
2021/12/30 07:55:55;;;;;;;12.25;5.43;;;11.50;99.90;;;;;;5054999;28;20064;-74
2021/12/30 07:58:21;;;;;;;12.98;5.47;;;11.50;99.90;;;;;;5054918;28;20049;-74
2021/12/30 08:00:46;;;;;;;12.13;5.82;;;11.50;99.90;;;;;;5055260;28;20131;-74
2021/12/30 08:03:12;;;;;;;12.18;6.43;;;11.50;99.90;;;;;;5055413;28;20033;-74
2021/12/30 08:05:38;;;;;;;10.23;5.60;;;11.50;99.90;;;;;;5054948;28;20475;-74
2021/12/30 08:08:03;;;;;;;9.07;4.85;;;11.50;99.90;;;;;;5055329;28;20123;-75
2021/12/30 08:10:30;;;;;;;7.63;5.15;;;11.50;99.90;;;;;;5054975;28;20079;-75
2021/12/30 08:12:56;;;;;;;8.35;4.60;;;11.50;99.90;;;;;;5055068;28;20080;-75
2021/12/30 08:15:22;;;;;;;7.22;4.43;;;11.50;99.90;;;;;;5055157;28;20489;-75
2021/12/30 08:17:49;;;;;;;8.27;4.60;;;11.50;99.90;;;;;;5054829;28;20045;-75
2021/12/30 08:20:16;;;;;;;7.47;4.50;;;11.50;99.90;;;;;;5038451;28;20052;-74
2021/12/30 08:22:42;;;;;;;7.65;4.53;;;11.60;99.90;;;;;;5054840;28;20063;-74
2021/12/30 08:25:10;;;;;;;6.38;4.53;;;11.60;99.90;;;;;;5055544;28;20040;-74
2021/12/30 08:27:36;;;;;;;8.10;5.13;;;11.60;99.90;;;;;;5058642;28;20060;-75
2021/12/30 08:30:04;;;;;;;5.30;3.85;;;11.60;99.90;;;;;;5058803;28;20036;-76
2021/12/30 08:32:30;;;;;;;9.40;4.97;;;11.60;99.90;;;;;;5041837;28;20412;-75
2021/12/30 08:34:55;;;;;;;8.40;5.60;;;11.70;99.90;;;;;;5058498;28;20040;-76
2021/12/30 08:37:21;;;;;;;10.82;6.45;;;11.70;99.90;;;;;;5058524;28;20050;-75
2021/12/30 08:39:47;;;;;;;11.35;7.43;;;11.70;99.90;;;;;;5058491;28;20038;-75
2021/12/30 08:42:21;;;;;;;11.73;6.95;;;11.70;99.90;;;;;;5058367;28;20090;-75
2021/12/30 08:44:48;;;;;;;11.55;6.82;;;11.80;99.90;;;;;;5058369;28;20040;-75
2021/12/30 08:47:14;;;;;;;10.88;6.45;;;11.80;99.90;;;;;;5058198;28;20037;-75
2021/12/30 08:49:45;;;;;;;11.73;6.53;;;11.80;99.90;;;;;;5058364;28;20037;-75
2021/12/30 08:52:13;;;;;;;13.88;6.95;;;11.90;99.90;;;;;;5058259;28;20150;-75
2021/12/30 08:54:38;;;;;;;16.63;6.80;;;11.90;99.90;;;;;;5041510;28;20471;-74
2021/12/30 08:57:04;;;;;;;19.13;7.88;;;11.90;99.90;;;;;;5058181;28;20115;-74
2021/12/30 08:59:30;;;;;;;15.70;6.85;;;11.90;99.90;;;;;;5058119;28;20052;-75
2021/12/30 09:01:55;;;;;;;18.67;6.63;;;12.00;99.90;;;;;;5058352;28;20087;-74
2021/12/30 09:04:21;;;;;;;13.48;4.90;;;12.00;99.90;;;;;;5058282;28;20044;-75
2021/12/30 09:06:47;;;;;;;12.95;4.93;;;12.00;99.90;;;;;;5041310;28;20409;-75
2021/12/30 09:09:12;;;;;;;14.93;4.63;;;12.10;99.90;;;;;;5058165;28;20079;-75
2021/12/30 09:11:38;;;;;;;12.13;3.95;;;12.10;99.90;;;;;;5058289;28;20040;-75
2021/12/30 09:14:04;;;;;;;16.23;3.90;;;12.10;99.90;;;;;;5057756;28;20085;-75
2021/12/30 09:16:29;;;;;;;13.43;4.40;;;12.10;99.90;;;;;;5041179;28;20127;-75
2021/12/30 09:18:57;;;;;;;13.40;4.57;;;12.20;99.90;;;;;;5057895;28;20048;-75
2021/12/30 09:21:22;;;;;;;14.90;4.65;;;12.20;99.90;;;;;;5057701;28;20041;-75
2021/12/30 09:23:48;;;;;;;10.50;4.55;;;12.20;99.90;;;;;;5058507;28;20055;-75
2021/12/30 09:26:14;;;;;;;11.88;5.30;;;12.20;99.90;;;;;;5041170;28;20047;-75
2021/12/30 09:28:40;;;;;;;14.05;5.10;;;12.20;99.90;;;;;;5057579;28;20036;-75
2021/12/30 09:31:05;;;;;;;10.60;5.32;;;12.20;99.90;;;;;;5057543;28;20127;-75
2021/12/30 09:33:31;;;;;;;14.25;5.60;;;12.30;99.90;;;;;;5057426;28;20036;-75
2021/12/30 09:35:59;;;;;;;12.40;6.05;;;12.30;99.90;;;;;;5057410;28;20044;-75
2021/12/30 09:38:27;;;;;;;15.10;5.93;;;12.30;99.90;;;;;;5057363;28;20040;-75
2021/12/30 09:40:53;;;;;;;13.70;5.22;;;12.30;99.90;;;;;;5057562;28;20505;-75
2021/12/30 09:43:19;;;;;;;13.77;5.63;;;12.30;99.90;;;;;;5057201;28;20451;-75
2021/12/30 09:45:45;;;;;;;10.57;4.47;;;12.30;99.90;;;;;;5040765;28;20044;-75
2021/12/30 09:48:13;;;;;;;13.77;4.85;;;12.30;99.90;;;;;;5057239;28;20040;-74
2021/12/30 09:50:44;;;;;;;13.82;4.85;;;12.30;99.90;;;;;;5057403;28;20033;-74
2021/12/30 09:53:10;;;;;;;18.83;5.00;;;12.30;99.90;;;;;;5057046;28;20416;-74
2021/12/30 09:55:37;;;;;;;12.95;3.30;;;12.30;99.90;;;;;;5057030;28;20035;-74
2021/12/30 09:58:04;;;;;;;9.40;3.15;;;12.30;99.90;;;;;;5040391;28;20041;-75
2021/12/30 10:00:30;;;;;;;12.52;3.28;;;12.40;99.90;;;;;;5056962;28;20049;-75
2021/12/30 10:02:56;;;;;;;13.10;3.03;;;12.40;99.90;;;;;;5057107;28;20062;-76
2021/12/30 10:05:26;;;;;;;10.40;3.17;;;12.40;99.90;;;;;;5056868;28;20496;-75
2021/12/30 10:08:08;;;;;;;12.48;2.90;;;12.40;99.90;;;;;;5056745;28;20070;-75
2021/12/30 10:10:38;;;;;;;11.55;2.70;;;12.40;99.90;;;;;;5057043;28;20036;-75
2021/12/30 10:13:29;;;;;;;12.15;2.67;;;12.40;99.90;;;;;;5056631;28;20037;-75
2021/12/30 10:16:15;;;;;;;9.20;2.75;;;12.40;99.90;;;;;;5056634;28;20041;-75
2021/12/30 10:19:00;;;;;;;11.40;3.35;;;12.40;99.90;;;;;;5056591;28;20040;-75
2021/12/30 10:21:33;;;;;;;12.68;2.63;;;12.40;99.90;;;;;;5040058;28;20040;-75
2021/12/30 10:24:03;;;;;;;13.48;3.30;;;12.40;99.90;;;;;;5056342;28;20041;-76
2021/12/30 10:26:29;;;;;;;11.68;2.67;;;12.40;99.90;;;;;;5056386;28;20041;-77
2021/12/30 10:29:00;;;;;;;11.63;2.38;;;12.30;99.90;;;;;;5056364;28;20045;-76
2021/12/30 10:31:28;;;;;;;15.38;3.10;;;12.40;99.90;;;;;;5056711;28;20036;-76
2021/12/30 10:34:04;;;;;;;13.60;3.05;;;12.40;99.90;;;;;;5056253;28;20036;-75
2021/12/30 10:36:33;;;;;;;14.45;3.33;;;12.40;99.90;;;;;;5056536;28;20554;-76
2021/12/30 10:39:19;;;;;;;17.60;3.55;;;12.30;99.90;;;;;;5056221;28;20041;-76
2021/12/30 10:41:46;;;;;;;15.27;3.90;;;12.40;99.90;;;;;;5039796;28;20079;-76
2021/12/30 10:44:12;;;;;;;20.00;4.32;;;12.40;99.90;;;;;;5056091;28;20044;-76
2021/12/30 10:46:38;;;;;;;16.92;3.88;;;12.40;99.90;;;;;;5056028;28;20139;-76
2021/12/30 10:49:08;;;;;;;22.90;4.70;;;12.40;99.90;;;;;;5055370;28;20071;-76
2021/12/30 10:51:48;;;;;;;19.20;4.53;;;12.40;99.90;;;;;;5056007;28;20036;-76
2021/12/30 10:54:28;;;;;;;27.85;5.28;;;12.40;99.90;;;;;;5055884;28;20043;-76
2021/12/30 10:56:55;;;;;;;24.17;4.75;;;12.40;99.90;;;;;;5055916;28;20075;-76
2021/12/30 10:59:25;;;;;;;25.13;5.10;;;12.40;99.90;;;;;;5056053;28;20041;-76
2021/12/30 11:01:55;;;;;;;26.08;5.28;;;12.40;99.90;;;;;;5056014;28;20044;-76
2021/12/30 11:04:21;;;;;;;30.20;5.30;;;12.40;99.90;;;;;;5055713;28;20039;-76
2021/12/30 11:06:48;;;;;;;24.33;4.88;;;12.40;99.90;;;;;;5055650;28;20044;-76
2021/12/30 11:09:20;;;;;;;24.38;5.43;;;12.40;99.90;;;;;;5055972;28;20035;-76
2021/12/30 11:11:47;;;;;;;25.88;5.78;;;12.50;99.90;;;;;;5055831;28;20123;-76
2021/12/30 11:14:20;;;;;;;27.05;5.20;;;12.50;99.90;;;;;;5055718;28;20552;-76
2021/12/30 11:17:17;;;;;;;30.80;5.57;;;12.50;99.90;;;;;;5038855;28;20037;-76
2021/12/30 11:20:01;;;;;;;24.10;5.15;;;12.50;99.90;;;;;;5055523;28;20094;-76
2021/12/30 11:22:30;;;;;;;35.47;5.95;;;12.40;99.90;;;;;;5055196;28;20051;-76
2021/12/30 11:24:58;;;;;;;33.13;5.78;;;12.50;99.90;;;;;;5055462;28;20080;-76
2021/12/30 11:27:25;;;;;;;34.00;5.50;;;12.50;99.90;;;;;;5038720;28;20047;-77
2021/12/30 11:29:57;;;;;;;34.10;6.32;;;12.50;99.90;;;;;;5039417;28;20114;-76
2021/12/30 11:32:27;;;;;;;27.13;5.90;;;12.50;99.90;;;;;;5055299;28;20043;-76
2021/12/30 11:34:53;;;;;;;33.03;5.97;;;12.50;99.90;;;;;;5055272;28;20047;-76
2021/12/30 11:37:20;;;;;;;32.15;6.28;;;12.50;99.90;;;;;;5055257;28;20041;-76
2021/12/30 11:39:53;;;;;;;28.30;5.57;;;12.50;99.90;;;;;;5055404;28;20067;-76
2021/12/30 11:42:23;;;;;;;;;;;12.50;99.90;;;;;;5038919;28;20070;-76
2021/12/30 11:44:54;;;;;;;29.55;5.95;;;12.40;99.90;;;;;;5055195;28;19916;-76
2021/12/30 11:47:32;;;;;;;28.50;5.43;;;12.40;99.90;;;;;;5038550;28;20051;-76
2021/12/30 11:50:02;;;;;;;22.52;5.40;;;12.50;99.90;;;;;;5038562;28;20040;-76
2021/12/30 11:53:03;;;;;;;31.48;6.30;;;12.40;99.90;;;;;;5055177;28;20033;-76
2021/12/30 11:55:48;;;;;;;30.95;6.03;;;12.50;99.90;;;;;;5055328;28;20444;-77
2021/12/30 11:58:34;;;;;;;27.70;5.13;;;12.50;99.90;;;;;;5038419;28;20447;-76
2021/12/30 12:01:12;;;;;;;32.53;5.65;;;12.50;99.90;;;;;;5042791;28;20060;-76
2021/12/30 12:03:39;;;;;;;28.20;5.63;;;12.40;99.90;;;;;;5059169;28;20044;-76
2021/12/30 12:06:24;;;;;;;31.40;5.45;;;12.40;99.90;;;;;;5059130;28;20055;-76
2021/12/30 12:08:58;;;;;;;35.15;6.00;;;12.50;99.90;;;;;;5042409;28;20086;-77
2021/12/30 12:11:27;;;;;;;34.50;6.00;;;12.40;99.90;;;;;;5059086;28;20048;-76
2021/12/30 12:13:55;;;;;;;28.35;5.15;;;12.50;99.90;;;;;;5058934;28;20483;-77
2021/12/30 12:16:48;;;;;;;30.90;5.78;;;12.50;99.90;;;;;;5059579;28;20044;-77
2021/12/30 12:19:16;;;;;;;34.80;6.82;;;12.50;99.90;;;;;;5058928;28;20040;-77
2021/12/30 12:21:45;;;;;;;29.10;5.22;;;12.50;99.90;;;;;;5042044;28;20046;-77
2021/12/30 12:24:23;;;;;;;26.20;5.65;;;12.50;99.90;;;;;;5058610;28;20040;-77
2021/12/30 12:26:55;;;;;;;26.85;5.45;;;12.50;99.90;;;;;;5058628;28;20044;-77
2021/12/30 12:29:32;;;;;;;33.13;5.75;;;12.50;99.90;;;;;;5058760;28;20036;-77
2021/12/30 12:32:11;;;;;;;29.63;5.20;;;12.50;99.90;;;;;;5042124;28;20040;-75
2021/12/30 12:34:55;;;;;;;33.63;5.70;;;12.50;99.90;;;;;;5058574;28;20044;-77
2021/12/30 12:37:30;;;;;;;27.20;4.85;;;12.50;99.90;;;;;;5041930;28;20040;-77
2021/12/30 12:40:01;;;;;;;31.30;5.32;;;12.50;99.90;;;;;;5059088;28;20048;-77
2021/12/30 12:42:48;;;;;;;26.98;5.28;;;12.50;99.90;;;;;;5041937;28;20044;-77